sensor_id;sensor_type;location;lat;lon;timestamp;P1;durP1;ratioP1;P2;durP2;ratioP2
32138;SDS011;18644;48.700;9.210;2023-04-25T00:00:56;1.63;;;1.48;;
32138;SDS011;18644;48.700;9.210;2023-04-25T00:03:23;1.60;;;1.40;;
32138;SDS011;18644;48.700;9.210;2023-04-25T00:05:50;1.98;;;1.30;;
32138;SDS011;18644;48.700;9.210;2023-04-25T00:08:17;1.60;;;1.50;;
32138;SDS011;18644;48.700;9.210;2023-04-25T00:10:44;1.50;;;1.40;;
32138;SDS011;18644;48.700;9.210;2023-04-25T00:13:11;1.67;;;1.58;;
32138;SDS011;18644;48.700;9.210;2023-04-25T00:15:38;3.42;;;1.85;;
32138;SDS011;18644;48.700;9.210;2023-04-25T00:18:07;2.03;;;1.65;;
32138;SDS011;18644;48.700;9.210;2023-04-25T00:20:34;1.40;;;1.30;;
32138;SDS011;18644;48.700;9.210;2023-04-25T00:23:02;1.38;;;1.27;;
32138;SDS011;18644;48.700;9.210;2023-04-25T00:25:28;2.20;;;1.75;;
32138;SDS011;18644;48.700;9.210;2023-04-25T00:27:55;1.73;;;1.63;;
32138;SDS011;18644;48.700;9.210;2023-04-25T00:30:22;1.83;;;1.38;;
32138;SDS011;18644;48.700;9.210;2023-04-25T00:32:49;2.08;;;1.60;;
32138;SDS011;18644;48.700;9.210;2023-04-25T00:35:17;4.47;;;1.98;;
32138;SDS011;18644;48.700;9.210;2023-04-25T00:37:44;1.60;;;1.40;;
32138;SDS011;18644;48.700;9.210;2023-04-25T00:40:11;2.75;;;1.52;;
32138;SDS011;18644;48.700;9.210;2023-04-25T00:42:39;1.75;;;1.50;;
32138;SDS011;18644;48.700;9.210;2023-04-25T00:45:07;3.17;;;1.63;;
32138;SDS011;18644;48.700;9.210;2023-04-25T00:47:39;1.55;;;1.45;;
32138;SDS011;18644;48.700;9.210;2023-04-25T00:50:07;1.50;;;1.40;;
32138;SDS011;18644;48.700;9.210;2023-04-25T00:52:36;1.35;;;1.25;;
32138;SDS011;18644;48.700;9.210;2023-04-25T00:55:06;2.00;;;1.40;;
32138;SDS011;18644;48.700;9.210;2023-04-25T00:57:34;1.58;;;1.48;;
32138;SDS011;18644;48.700;9.210;2023-04-25T01:00:01;2.28;;;1.40;;
32138;SDS011;18644;48.700;9.210;2023-04-25T01:02:31;1.73;;;1.63;;
32138;SDS011;18644;48.700;9.210;2023-04-25T01:05:00;2.95;;;1.65;;
32138;SDS011;18644;48.700;9.210;2023-04-25T01:07:27;3.25;;;1.77;;
32138;SDS011;18644;48.700;9.210;2023-04-25T01:09:56;1.75;;;1.65;;
32138;SDS011;18644;48.700;9.210;2023-04-25T01:12:23;1.55;;;1.42;;
32138;SDS011;18644;48.700;9.210;2023-04-25T01:14:50;1.52;;;1.42;;
32138;SDS011;18644;48.700;9.210;2023-04-25T01:17:18;1.90;;;1.67;;
32138;SDS011;18644;48.700;9.210;2023-04-25T01:19:46;1.80;;;1.60;;
32138;SDS011;18644;48.700;9.210;2023-04-25T01:22:15;1.65;;;1.55;;
32138;SDS011;18644;48.700;9.210;2023-04-25T01:24:42;1.70;;;1.60;;
32138;SDS011;18644;48.700;9.210;2023-04-25T01:27:10;2.30;;;1.55;;
32138;SDS011;18644;48.700;9.210;2023-04-25T01:29:37;3.05;;;1.95;;
32138;SDS011;18644;48.700;9.210;2023-04-25T01:32:05;1.70;;;1.45;;
32138;SDS011;18644;48.700;9.210;2023-04-25T01:34:32;1.70;;;1.50;;
32138;SDS011;18644;48.700;9.210;2023-04-25T01:36:59;1.73;;;1.50;;
32138;SDS011;18644;48.700;9.210;2023-04-25T01:39:28;2.63;;;1.60;;
32138;SDS011;18644;48.700;9.210;2023-04-25T01:41:55;3.83;;;2.05;;
32138;SDS011;18644;48.700;9.210;2023-04-25T01:44:22;2.95;;;1.83;;
32138;SDS011;18644;48.700;9.210;2023-04-25T01:46:49;3.08;;;1.67;;
32138;SDS011;18644;48.700;9.210;2023-04-25T01:49:16;1.65;;;1.40;;
32138;SDS011;18644;48.700;9.210;2023-04-25T01:51:43;1.45;;;1.30;;
32138;SDS011;18644;48.700;9.210;2023-04-25T01:54:10;1.73;;;1.13;;
32138;SDS011;18644;48.700;9.210;2023-04-25T01:56:38;2.00;;;1.25;;
32138;SDS011;18644;48.700;9.210;2023-04-25T01:59:06;4.60;;;1.45;;
32138;SDS011;18644;48.700;9.210;2023-04-25T02:01:33;1.30;;;1.20;;
32138;SDS011;18644;48.700;9.210;2023-04-25T02:04:00;2.70;;;1.40;;
32138;SDS011;18644;48.700;9.210;2023-04-25T02:06:27;1.27;;;1.17;;
32138;SDS011;18644;48.700;9.210;2023-04-25T02:08:54;1.30;;;1.20;;
32138;SDS011;18644;48.700;9.210;2023-04-25T02:11:21;2.25;;;1.27;;
32138;SDS011;18644;48.700;9.210;2023-04-25T02:13:49;2.35;;;1.45;;
32138;SDS011;18644;48.700;9.210;2023-04-25T02:16:15;3.10;;;1.33;;
32138;SDS011;18644;48.700;9.210;2023-04-25T02:18:42;1.90;;;1.45;;
32138;SDS011;18644;48.700;9.210;2023-04-25T02:21:10;1.40;;;1.10;;
32138;SDS011;18644;48.700;9.210;2023-04-25T02:23:37;2.58;;;1.40;;
32138;SDS011;18644;48.700;9.210;2023-04-25T02:26:04;3.10;;;1.52;;
32138;SDS011;18644;48.700;9.210;2023-04-25T02:28:31;1.73;;;1.02;;
32138;SDS011;18644;48.700;9.210;2023-04-25T02:30:59;1.63;;;1.27;;
32138;SDS011;18644;48.700;9.210;2023-04-25T02:33:26;4.03;;;1.90;;
32138;SDS011;18644;48.700;9.210;2023-04-25T02:35:53;1.73;;;1.35;;
32138;SDS011;18644;48.700;9.210;2023-04-25T02:38:20;4.60;;;2.13;;
32138;SDS011;18644;48.700;9.210;2023-04-25T02:40:46;2.65;;;1.25;;
32138;SDS011;18644;48.700;9.210;2023-04-25T02:43:13;1.85;;;1.50;;
32138;SDS011;18644;48.700;9.210;2023-04-25T02:45:41;2.63;;;1.50;;
32138;SDS011;18644;48.700;9.210;2023-04-25T02:48:09;2.90;;;1.67;;
32138;SDS011;18644;48.700;9.210;2023-04-25T02:50:36;2.70;;;1.40;;
32138;SDS011;18644;48.700;9.210;2023-04-25T02:53:03;2.45;;;1.77;;
32138;SDS011;18644;48.700;9.210;2023-04-25T02:55:29;3.10;;;1.63;;
32138;SDS011;18644;48.700;9.210;2023-04-25T02:57:56;2.38;;;1.60;;
32138;SDS011;18644;48.700;9.210;2023-04-25T03:00:23;2.85;;;1.80;;
32138;SDS011;18644;48.700;9.210;2023-04-25T03:02:50;6.22;;;1.33;;
32138;SDS011;18644;48.700;9.210;2023-04-25T03:05:18;1.90;;;1.60;;
32138;SDS011;18644;48.700;9.210;2023-04-25T03:07:45;2.13;;;1.20;;
32138;SDS011;18644;48.700;9.210;2023-04-25T03:10:12;2.03;;;1.60;;
32138;SDS011;18644;48.700;9.210;2023-04-25T03:12:39;2.13;;;1.67;;
32138;SDS011;18644;48.700;9.210;2023-04-25T03:15:06;1.80;;;1.60;;
32138;SDS011;18644;48.700;9.210;2023-04-25T03:17:34;2.65;;;1.35;;
32138;SDS011;18644;48.700;9.210;2023-04-25T03:20:00;1.83;;;1.23;;
32138;SDS011;18644;48.700;9.210;2023-04-25T03:22:30;1.63;;;1.38;;
32138;SDS011;18644;48.700;9.210;2023-04-25T03:24:57;1.50;;;1.40;;
32138;SDS011;18644;48.700;9.210;2023-04-25T03:27:24;1.70;;;1.52;;
32138;SDS011;18644;48.700;9.210;2023-04-25T03:29:51;1.45;;;1.30;;
32138;SDS011;18644;48.700;9.210;2023-04-25T03:32:17;2.97;;;1.67;;
32138;SDS011;18644;48.700;9.210;2023-04-25T03:34:44;1.67;;;1.40;;
32138;SDS011;18644;48.700;9.210;2023-04-25T03:37:11;2.85;;;1.48;;
32138;SDS011;18644;48.700;9.210;2023-04-25T03:39:39;1.50;;;1.40;;
32138;SDS011;18644;48.700;9.210;2023-04-25T03:42:06;3.60;;;1.60;;
32138;SDS011;18644;48.700;9.210;2023-04-25T03:44:33;1.73;;;1.45;;
32138;SDS011;18644;48.700;9.210;2023-04-25T03:47:00;2.45;;;1.55;;
32138;SDS011;18644;48.700;9.210;2023-04-25T03:49:27;2.15;;;1.38;;
32138;SDS011;18644;48.700;9.210;2023-04-25T03:51:54;1.65;;;1.38;;
32138;SDS011;18644;48.700;9.210;2023-04-25T03:54:20;2.53;;;1.48;;
32138;SDS011;18644;48.700;9.210;2023-04-25T03:56:48;2.25;;;1.73;;
32138;SDS011;18644;48.700;9.210;2023-04-25T03:59:15;3.08;;;1.40;;
32138;SDS011;18644;48.700;9.210;2023-04-25T04:01:42;2.70;;;1.48;;
32138;SDS011;18644;48.700;9.210;2023-04-25T04:04:09;1.58;;;1.42;;
32138;SDS011;18644;48.700;9.210;2023-04-25T04:06:36;1.58;;;1.23;;
32138;SDS011;18644;48.700;9.210;2023-04-25T04:09:03;1.95;;;1.48;;
32138;SDS011;18644;48.700;9.210;2023-04-25T04:11:31;2.42;;;1.73;;
32138;SDS011;18644;48.700;9.210;2023-04-25T04:13:59;1.35;;;1.25;;
32138;SDS011;18644;48.700;9.210;2023-04-25T04:16:27;2.05;;;1.75;;
32138;SDS011;18644;48.700;9.210;2023-04-25T04:18:54;3.25;;;1.70;;
32138;SDS011;18644;48.700;9.210;2023-04-25T04:21:21;2.97;;;1.55;;
32138;SDS011;18644;48.700;9.210;2023-04-25T04:23:48;1.80;;;1.42;;
32138;SDS011;18644;48.700;9.210;2023-04-25T04:26:15;3.80;;;1.63;;
32138;SDS011;18644;48.700;9.210;2023-04-25T04:28:42;2.67;;;1.75;;
32138;SDS011;18644;48.700;9.210;2023-04-25T04:31:11;1.67;;;1.48;;
32138;SDS011;18644;48.700;9.210;2023-04-25T04:33:41;1.90;;;1.65;;
32138;SDS011;18644;48.700;9.210;2023-04-25T04:36:09;2.45;;;1.50;;
32138;SDS011;18644;48.700;9.210;2023-04-25T04:38:36;1.63;;;1.35;;
32138;SDS011;18644;48.700;9.210;2023-04-25T04:41:03;2.80;;;1.65;;
32138;SDS011;18644;48.700;9.210;2023-04-25T04:43:30;2.90;;;1.50;;
32138;SDS011;18644;48.700;9.210;2023-04-25T04:45:58;1.83;;;1.52;;
32138;SDS011;18644;48.700;9.210;2023-04-25T04:48:27;1.65;;;1.55;;
32138;SDS011;18644;48.700;9.210;2023-04-25T04:50:57;2.88;;;1.83;;
32138;SDS011;18644;48.700;9.210;2023-04-25T04:53:24;2.55;;;1.60;;
32138;SDS011;18644;48.700;9.210;2023-04-25T04:55:51;4.88;;;2.50;;
32138;SDS011;18644;48.700;9.210;2023-04-25T04:58:18;1.83;;;1.63;;
32138;SDS011;18644;48.700;9.210;2023-04-25T05:00:45;1.75;;;1.60;;
32138;SDS011;18644;48.700;9.210;2023-04-25T05:03:12;2.00;;;1.75;;
32138;SDS011;18644;48.700;9.210;2023-04-25T05:05:40;8.40;;;2.47;;
32138;SDS011;18644;48.700;9.210;2023-04-25T05:08:07;3.00;;;1.80;;
32138;SDS011;18644;48.700;9.210;2023-04-25T05:10:34;3.92;;;2.05;;
32138;SDS011;18644;48.700;9.210;2023-04-25T05:13:01;3.38;;;1.77;;
32138;SDS011;18644;48.700;9.210;2023-04-25T05:15:28;2.58;;;1.50;;
32138;SDS011;18644;48.700;9.210;2023-04-25T05:17:55;1.85;;;1.63;;
32138;SDS011;18644;48.700;9.210;2023-04-25T05:20:22;3.03;;;1.67;;
32138;SDS011;18644;48.700;9.210;2023-04-25T05:22:50;2.03;;;1.85;;
32138;SDS011;18644;48.700;9.210;2023-04-25T05:25:17;5.97;;;1.80;;
32138;SDS011;18644;48.700;9.210;2023-04-25T05:27:44;3.97;;;1.67;;
32138;SDS011;18644;48.700;9.210;2023-04-25T05:30:11;4.63;;;1.83;;
32138;SDS011;18644;48.700;9.210;2023-04-25T05:32:38;2.15;;;1.55;;
32138;SDS011;18644;48.700;9.210;2023-04-25T05:35:05;4.40;;;2.03;;
32138;SDS011;18644;48.700;9.210;2023-04-25T05:37:33;3.75;;;2.13;;
32138;SDS011;18644;48.700;9.210;2023-04-25T05:40:01;2.83;;;1.90;;
32138;SDS011;18644;48.700;9.210;2023-04-25T05:42:31;2.60;;;1.70;;
32138;SDS011;18644;48.700;9.210;2023-04-25T05:44:58;3.50;;;2.05;;
32138;SDS011;18644;48.700;9.210;2023-04-25T05:47:25;3.15;;;1.90;;
32138;SDS011;18644;48.700;9.210;2023-04-25T05:49:52;4.85;;;2.05;;
32138;SDS011;18644;48.700;9.210;2023-04-25T05:52:19;3.28;;;2.10;;
32138;SDS011;18644;48.700;9.210;2023-04-25T05:54:46;4.00;;;1.65;;
32138;SDS011;18644;48.700;9.210;2023-04-25T05:57:19;2.50;;;1.73;;
32138;SDS011;18644;48.700;9.210;2023-04-25T05:59:47;2.85;;;2.00;;
32138;SDS011;18644;48.700;9.210;2023-04-25T06:02:14;2.70;;;1.80;;
32138;SDS011;18644;48.700;9.210;2023-04-25T06:04:41;3.17;;;1.80;;
32138;SDS011;18644;48.700;9.210;2023-04-25T06:07:08;4.78;;;2.10;;
32138;SDS011;18644;48.700;9.210;2023-04-25T06:09:34;4.10;;;1.50;;
32138;SDS011;18644;48.700;9.210;2023-04-25T06:12:01;2.00;;;1.80;;
32138;SDS011;18644;48.700;9.210;2023-04-25T06:14:30;4.25;;;2.03;;
32138;SDS011;18644;48.700;9.210;2023-04-25T06:16:57;7.07;;;1.75;;
32138;SDS011;18644;48.700;9.210;2023-04-25T06:19:24;3.33;;;1.67;;
32138;SDS011;18644;48.700;9.210;2023-04-25T06:21:50;3.10;;;1.85;;
32138;SDS011;18644;48.700;9.210;2023-04-25T06:24:17;2.40;;;2.00;;
32138;SDS011;18644;48.700;9.210;2023-04-25T06:26:44;4.10;;;2.08;;
32138;SDS011;18644;48.700;9.210;2023-04-25T06:29:12;3.25;;;1.80;;
32138;SDS011;18644;48.700;9.210;2023-04-25T06:31:40;3.35;;;1.88;;
32138;SDS011;18644;48.700;9.210;2023-04-25T06:34:07;4.18;;;2.00;;
32138;SDS011;18644;48.700;9.210;2023-04-25T06:36:35;3.28;;;1.90;;
32138;SDS011;18644;48.700;9.210;2023-04-25T06:39:02;2.60;;;2.25;;
32138;SDS011;18644;48.700;9.210;2023-04-25T06:41:29;3.00;;;1.70;;
32138;SDS011;18644;48.700;9.210;2023-04-25T06:43:56;2.30;;;1.60;;
32138;SDS011;18644;48.700;9.210;2023-04-25T06:46:23;1.77;;;1.67;;
32138;SDS011;18644;48.700;9.210;2023-04-25T06:48:51;1.55;;;1.45;;
32138;SDS011;18644;48.700;9.210;2023-04-25T06:51:18;1.90;;;1.50;;
32138;SDS011;18644;48.700;9.210;2023-04-25T06:53:45;2.13;;;1.92;;
32138;SDS011;18644;48.700;9.210;2023-04-25T06:56:11;1.60;;;1.50;;
32138;SDS011;18644;48.700;9.210;2023-04-25T06:58:38;1.60;;;1.42;;
32138;SDS011;18644;48.700;9.210;2023-04-25T07:01:05;2.83;;;1.88;;
32138;SDS011;18644;48.700;9.210;2023-04-25T07:03:32;2.67;;;1.58;;
32138;SDS011;18644;48.700;9.210;2023-04-25T07:06:01;2.25;;;1.67;;
32138;SDS011;18644;48.700;9.210;2023-04-25T07:08:28;1.52;;;1.42;;
32138;SDS011;18644;48.700;9.210;2023-04-25T07:10:55;1.60;;;1.50;;
32138;SDS011;18644;48.700;9.210;2023-04-25T07:13:22;1.95;;;1.60;;
32138;SDS011;18644;48.700;9.210;2023-04-25T07:15:49;1.85;;;1.70;;
32138;SDS011;18644;48.700;9.210;2023-04-25T07:18:16;1.70;;;1.60;;
32138;SDS011;18644;48.700;9.210;2023-04-25T07:20:43;1.60;;;1.50;;
32138;SDS011;18644;48.700;9.210;2023-04-25T07:23:11;1.60;;;1.50;;
32138;SDS011;18644;48.700;9.210;2023-04-25T07:25:38;2.20;;;1.50;;
32138;SDS011;18644;48.700;9.210;2023-04-25T07:28:05;1.63;;;1.45;;
32138;SDS011;18644;48.700;9.210;2023-04-25T07:30:32;1.50;;;1.40;;
32138;SDS011;18644;48.700;9.210;2023-04-25T07:32:59;1.40;;;1.30;;
32138;SDS011;18644;48.700;9.210;2023-04-25T07:35:26;2.00;;;1.77;;
32138;SDS011;18644;48.700;9.210;2023-04-25T07:37:53;2.05;;;1.52;;
32138;SDS011;18644;48.700;9.210;2023-04-25T07:40:22;2.17;;;1.98;;
32138;SDS011;18644;48.700;9.210;2023-04-25T07:42:48;2.00;;;1.65;;
32138;SDS011;18644;48.700;9.210;2023-04-25T07:45:15;2.33;;;1.80;;
32138;SDS011;18644;48.700;9.210;2023-04-25T07:47:42;2.00;;;1.70;;
32138;SDS011;18644;48.700;9.210;2023-04-25T07:50:10;3.08;;;1.52;;
32138;SDS011;18644;48.700;9.210;2023-04-25T07:52:37;1.65;;;1.48;;
32138;SDS011;18644;48.700;9.210;2023-04-25T07:55:04;3.80;;;2.22;;
32138;SDS011;18644;48.700;9.210;2023-04-25T07:57:33;2.17;;;1.73;;
32138;SDS011;18644;48.700;9.210;2023-04-25T07:59:59;2.75;;;2.00;;
32138;SDS011;18644;48.700;9.210;2023-04-25T08:02:26;2.17;;;1.98;;
32138;SDS011;18644;48.700;9.210;2023-04-25T08:04:53;2.05;;;1.83;;
32138;SDS011;18644;48.700;9.210;2023-04-25T08:07:20;4.38;;;2.25;;
32138;SDS011;18644;48.700;9.210;2023-04-25T08:09:47;2.05;;;1.80;;
32138;SDS011;18644;48.700;9.210;2023-04-25T08:12:14;2.50;;;2.08;;
32138;SDS011;18644;48.700;9.210;2023-04-25T08:14:42;2.38;;;2.15;;
32138;SDS011;18644;48.700;9.210;2023-04-25T08:17:09;2.63;;;2.17;;
32138;SDS011;18644;48.700;9.210;2023-04-25T08:19:36;4.50;;;2.10;;
32138;SDS011;18644;48.700;9.210;2023-04-25T08:22:03;3.17;;;1.80;;
32138;SDS011;18644;48.700;9.210;2023-04-25T08:24:29;3.35;;;2.42;;
32138;SDS011;18644;48.700;9.210;2023-04-25T08:26:56;2.50;;;2.10;;
32138;SDS011;18644;48.700;9.210;2023-04-25T08:29:23;2.60;;;2.10;;
32138;SDS011;18644;48.700;9.210;2023-04-25T08:31:52;2.60;;;2.30;;
32138;SDS011;18644;48.700;9.210;2023-04-25T08:34:19;4.60;;;2.53;;
32138;SDS011;18644;48.700;9.210;2023-04-25T08:36:46;5.72;;;2.30;;
32138;SDS011;18644;48.700;9.210;2023-04-25T08:39:12;2.88;;;2.00;;
32138;SDS011;18644;48.700;9.210;2023-04-25T08:41:40;3.58;;;2.25;;
32138;SDS011;18644;48.700;9.210;2023-04-25T08:44:07;3.58;;;2.33;;
32138;SDS011;18644;48.700;9.210;2023-04-25T08:46:37;3.95;;;2.42;;
32138;SDS011;18644;48.700;9.210;2023-04-25T08:49:07;2.70;;;2.25;;
32138;SDS011;18644;48.700;9.210;2023-04-25T08:51:35;2.88;;;2.35;;
32138;SDS011;18644;48.700;9.210;2023-04-25T08:54:13;2.85;;;2.15;;
32138;SDS011;18644;48.700;9.210;2023-04-25T08:56:41;2.50;;;2.20;;
32138;SDS011;18644;48.700;9.210;2023-04-25T08:59:12;2.17;;;1.73;;
32138;SDS011;18644;48.700;9.210;2023-04-25T09:01:39;6.47;;;2.10;;
32138;SDS011;18644;48.700;9.210;2023-04-25T09:04:08;2.30;;;2.10;;
32138;SDS011;18644;48.700;9.210;2023-04-25T09:06:35;3.38;;;2.05;;
32138;SDS011;18644;48.700;9.210;2023-04-25T09:09:02;2.50;;;2.20;;
32138;SDS011;18644;48.700;9.210;2023-04-25T09:11:31;2.78;;;2.00;;
32138;SDS011;18644;48.700;9.210;2023-04-25T09:14:10;2.05;;;1.85;;
32138;SDS011;18644;48.700;9.210;2023-04-25T09:16:58;3.00;;;2.10;;
32138;SDS011;18644;48.700;9.210;2023-04-25T09:19:29;2.40;;;2.00;;
32138;SDS011;18644;48.700;9.210;2023-04-25T09:21:57;3.00;;;2.17;;
32138;SDS011;18644;48.700;9.210;2023-04-25T09:24:35;2.42;;;2.22;;
32138;SDS011;18644;48.700;9.210;2023-04-25T09:27:04;3.08;;;2.47;;
32138;SDS011;18644;48.700;9.210;2023-04-25T09:29:31;2.80;;;2.05;;
32138;SDS011;18644;48.700;9.210;2023-04-25T09:32:16;3.15;;;2.38;;
32138;SDS011;18644;48.700;9.210;2023-04-25T09:34:47;3.03;;;2.13;;
32138;SDS011;18644;48.700;9.210;2023-04-25T09:37:19;3.25;;;2.22;;
32138;SDS011;18644;48.700;9.210;2023-04-25T09:42:15;3.20;;;2.13;;
32138;SDS011;18644;48.700;9.210;2023-04-25T09:44:43;4.38;;;2.63;;
32138;SDS011;18644;48.700;9.210;2023-04-25T09:47:11;2.08;;;1.88;;
32138;SDS011;18644;48.700;9.210;2023-04-25T09:49:40;2.33;;;2.00;;
32138;SDS011;18644;48.700;9.210;2023-04-25T09:52:13;2.13;;;1.75;;
32138;SDS011;18644;48.700;9.210;2023-04-25T09:54:42;1.90;;;1.70;;
32138;SDS011;18644;48.700;9.210;2023-04-25T09:57:10;2.67;;;1.77;;
32138;SDS011;18644;48.700;9.210;2023-04-25T09:59:39;2.85;;;1.52;;
32138;SDS011;18644;48.700;9.210;2023-04-25T10:02:11;2.08;;;1.60;;
32138;SDS011;18644;48.700;9.210;2023-04-25T10:04:39;1.52;;;1.40;;
32138;SDS011;18644;48.700;9.210;2023-04-25T10:07:08;2.45;;;1.55;;
32138;SDS011;18644;48.700;9.210;2023-04-25T10:09:37;1.90;;;1.80;;
32138;SDS011;18644;48.700;9.210;2023-04-25T10:12:06;2.60;;;1.45;;
32138;SDS011;18644;48.700;9.210;2023-04-25T10:14:33;1.63;;;1.40;;
32138;SDS011;18644;48.700;9.210;2023-04-25T10:17:01;1.70;;;1.58;;
32138;SDS011;18644;48.700;9.210;2023-04-25T10:19:28;1.60;;;1.48;;
32138;SDS011;18644;48.700;9.210;2023-04-25T10:21:56;1.25;;;1.10;;
32138;SDS011;18644;48.700;9.210;2023-04-25T10:24:32;1.40;;;1.30;;
32138;SDS011;18644;48.700;9.210;2023-04-25T10:27:00;2.75;;;1.23;;
32138;SDS011;18644;48.700;9.210;2023-04-25T10:29:28;1.20;;;1.10;;
32138;SDS011;18644;48.700;9.210;2023-04-25T10:31:55;1.75;;;1.10;;
32138;SDS011;18644;48.700;9.210;2023-04-25T10:34:24;1.20;;;1.10;;
32138;SDS011;18644;48.700;9.210;2023-04-25T10:37:04;0.93;;;0.93;;
32138;SDS011;18644;48.700;9.210;2023-04-25T10:39:37;1.20;;;1.05;;
32138;SDS011;18644;48.700;9.210;2023-04-25T10:42:06;0.85;;;0.85;;
32138;SDS011;18644;48.700;9.210;2023-04-25T10:44:34;8.75;;;4.45;;
32138;SDS011;18644;48.700;9.210;2023-04-25T10:47:06;4.28;;;3.17;;
32138;SDS011;18644;48.700;9.210;2023-04-25T10:49:34;6.63;;;4.20;;
32138;SDS011;18644;48.700;9.210;2023-04-25T10:54:56;1.35;;;1.20;;
32138;SDS011;18644;48.700;9.210;2023-04-25T11:00:12;1.00;;;0.77;;
32138;SDS011;18644;48.700;9.210;2023-04-25T11:02:41;0.98;;;0.70;;
32138;SDS011;18644;48.700;9.210;2023-04-25T11:05:15;1.00;;;0.90;;
32138;SDS011;18644;48.700;9.210;2023-04-25T11:07:50;2.30;;;2.10;;
32138;SDS011;18644;48.700;9.210;2023-04-25T11:10:20;8.35;;;2.40;;
32138;SDS011;18644;48.700;9.210;2023-04-25T11:12:52;1.48;;;1.20;;
32138;SDS011;18644;48.700;9.210;2023-04-25T11:15:18;0.88;;;0.88;;
32138;SDS011;18644;48.700;9.210;2023-04-25T11:17:46;0.88;;;0.88;;
32138;SDS011;18644;48.700;9.210;2023-04-25T11:20:13;0.63;;;0.63;;
32138;SDS011;18644;48.700;9.210;2023-04-25T11:22:40;0.75;;;0.75;;
32138;SDS011;18644;48.700;9.210;2023-04-25T11:25:08;0.80;;;0.80;;
32138;SDS011;18644;48.700;9.210;2023-04-25T11:27:39;1.55;;;1.40;;
32138;SDS011;18644;48.700;9.210;2023-04-25T11:30:16;1.38;;;1.27;;
32138;SDS011;18644;48.700;9.210;2023-04-25T11:32:44;2.20;;;1.33;;
32138;SDS011;18644;48.700;9.210;2023-04-25T11:35:11;1.30;;;1.20;;
32138;SDS011;18644;48.700;9.210;2023-04-25T11:37:40;1.10;;;1.00;;
32138;SDS011;18644;48.700;9.210;2023-04-25T11:40:08;1.58;;;1.42;;
32138;SDS011;18644;48.700;9.210;2023-04-25T11:42:36;1.45;;;1.20;;
32138;SDS011;18644;48.700;9.210;2023-04-25T11:45:06;1.45;;;1.13;;
32138;SDS011;18644;48.700;9.210;2023-04-25T11:47:34;1.05;;;1.00;;
32138;SDS011;18644;48.700;9.210;2023-04-25T11:50:02;1.55;;;1.30;;
32138;SDS011;18644;48.700;9.210;2023-04-25T11:52:37;1.20;;;1.10;;
32138;SDS011;18644;48.700;9.210;2023-04-25T11:55:06;2.47;;;1.48;;
32138;SDS011;18644;48.700;9.210;2023-04-25T11:57:35;1.88;;;1.30;;
32138;SDS011;18644;48.700;9.210;2023-04-25T12:00:07;2.23;;;1.20;;
32138;SDS011;18644;48.700;9.210;2023-04-25T12:02:40;1.85;;;1.20;;
32138;SDS011;18644;48.700;9.210;2023-04-25T12:05:08;1.55;;;1.42;;
32138;SDS011;18644;48.700;9.210;2023-04-25T12:07:37;1.52;;;1.30;;
32138;SDS011;18644;48.700;9.210;2023-04-25T12:10:04;1.80;;;1.38;;
32138;SDS011;18644;48.700;9.210;2023-04-25T12:12:33;1.60;;;1.50;;
32138;SDS011;18644;48.700;9.210;2023-04-25T12:15:12;1.48;;;1.38;;
32138;SDS011;18644;48.700;9.210;2023-04-25T12:17:44;2.00;;;1.60;;
32138;SDS011;18644;48.700;9.210;2023-04-25T12:20:12;1.75;;;1.52;;
32138;SDS011;18644;48.700;9.210;2023-04-25T12:22:41;2.20;;;1.80;;
32138;SDS011;18644;48.700;9.210;2023-04-25T12:25:10;1.65;;;1.50;;
32138;SDS011;18644;48.700;9.210;2023-04-25T12:27:38;2.10;;;1.90;;
32138;SDS011;18644;48.700;9.210;2023-04-25T12:30:07;2.47;;;2.00;;
32138;SDS011;18644;48.700;9.210;2023-04-25T12:32:36;2.70;;;1.88;;
32138;SDS011;18644;48.700;9.210;2023-04-25T12:35:04;2.80;;;2.00;;
32138;SDS011;18644;48.700;9.210;2023-04-25T12:37:32;4.50;;;2.17;;
32138;SDS011;18644;48.700;9.210;2023-04-25T12:39:59;6.15;;;5.10;;
32138;SDS011;18644;48.700;9.210;2023-04-25T12:42:26;4.03;;;3.55;;
32138;SDS011;18644;48.700;9.210;2023-04-25T12:44:53;3.63;;;2.50;;
32138;SDS011;18644;48.700;9.210;2023-04-25T12:47:19;3.45;;;2.28;;
32138;SDS011;18644;48.700;9.210;2023-04-25T12:49:48;1.95;;;1.75;;
32138;SDS011;18644;48.700;9.210;2023-04-25T12:52:14;3.38;;;2.30;;
32138;SDS011;18644;48.700;9.210;2023-04-25T12:54:41;2.03;;;1.88;;
32138;SDS011;18644;48.700;9.210;2023-04-25T12:57:09;2.78;;;2.10;;
32138;SDS011;18644;48.700;9.210;2023-04-25T12:59:37;3.33;;;2.08;;
32138;SDS011;18644;48.700;9.210;2023-04-25T13:02:04;2.78;;;2.33;;
32138;SDS011;18644;48.700;9.210;2023-04-25T13:04:31;3.45;;;2.08;;
32138;SDS011;18644;48.700;9.210;2023-04-25T13:06:59;2.25;;;2.05;;
32138;SDS011;18644;48.700;9.210;2023-04-25T13:09:26;4.10;;;2.20;;
32138;SDS011;18644;48.700;9.210;2023-04-25T13:11:53;2.55;;;1.95;;
32138;SDS011;18644;48.700;9.210;2023-04-25T13:14:19;2.67;;;2.00;;
32138;SDS011;18644;48.700;9.210;2023-04-25T13:16:46;2.65;;;2.08;;
32138;SDS011;18644;48.700;9.210;2023-04-25T13:19:13;3.10;;;2.42;;
32138;SDS011;18644;48.700;9.210;2023-04-25T13:21:40;4.20;;;2.80;;
32138;SDS011;18644;48.700;9.210;2023-04-25T13:24:08;3.75;;;2.58;;
32138;SDS011;18644;48.700;9.210;2023-04-25T13:26:35;2.85;;;2.33;;
32138;SDS011;18644;48.700;9.210;2023-04-25T13:29:02;3.60;;;2.42;;
32138;SDS011;18644;48.700;9.210;2023-04-25T13:31:29;2.28;;;2.08;;
32138;SDS011;18644;48.700;9.210;2023-04-25T13:33:57;4.60;;;2.85;;
32138;SDS011;18644;48.700;9.210;2023-04-25T13:36:24;2.53;;;2.15;;
32138;SDS011;18644;48.700;9.210;2023-04-25T13:38:51;2.85;;;2.38;;
32138;SDS011;18644;48.700;9.210;2023-04-25T13:41:19;3.03;;;2.28;;
32138;SDS011;18644;48.700;9.210;2023-04-25T13:43:46;3.92;;;2.30;;
32138;SDS011;18644;48.700;9.210;2023-04-25T13:46:13;2.58;;;2.38;;
32138;SDS011;18644;48.700;9.210;2023-04-25T13:48:41;3.13;;;2.60;;
32138;SDS011;18644;48.700;9.210;2023-04-25T13:51:12;4.35;;;2.58;;
32138;SDS011;18644;48.700;9.210;2023-04-25T13:53:41;3.75;;;2.38;;
32138;SDS011;18644;48.700;9.210;2023-04-25T13:56:08;2.58;;;2.15;;
32138;SDS011;18644;48.700;9.210;2023-04-25T13:58:37;5.95;;;2.70;;
32138;SDS011;18644;48.700;9.210;2023-04-25T14:01:04;4.00;;;2.97;;
32138;SDS011;18644;48.700;9.210;2023-04-25T14:03:31;4.03;;;2.78;;
32138;SDS011;18644;48.700;9.210;2023-04-25T14:05:58;2.83;;;2.45;;
32138;SDS011;18644;48.700;9.210;2023-04-25T14:08:25;3.67;;;2.55;;
32138;SDS011;18644;48.700;9.210;2023-04-25T14:10:53;4.47;;;2.95;;
32138;SDS011;18644;48.700;9.210;2023-04-25T14:13:20;3.90;;;2.90;;
32138;SDS011;18644;48.700;9.210;2023-04-25T14:15:49;2.80;;;2.50;;
32138;SDS011;18644;48.700;9.210;2023-04-25T14:18:16;3.30;;;3.00;;
32138;SDS011;18644;48.700;9.210;2023-04-25T14:20:44;5.70;;;3.55;;
32138;SDS011;18644;48.700;9.210;2023-04-25T14:23:10;4.85;;;3.58;;
32138;SDS011;18644;48.700;9.210;2023-04-25T14:25:37;3.90;;;3.50;;
32138;SDS011;18644;48.700;9.210;2023-04-25T14:28:05;8.43;;;3.13;;
32138;SDS011;18644;48.700;9.210;2023-04-25T14:30:32;3.65;;;2.88;;
32138;SDS011;18644;48.700;9.210;2023-04-25T14:33:00;5.28;;;3.10;;
32138;SDS011;18644;48.700;9.210;2023-04-25T14:35:27;3.97;;;3.25;;
32138;SDS011;18644;48.700;9.210;2023-04-25T14:37:54;3.28;;;2.90;;
32138;SDS011;18644;48.700;9.210;2023-04-25T14:40:21;3.10;;;2.55;;
32138;SDS011;18644;48.700;9.210;2023-04-25T14:42:48;4.05;;;2.97;;
32138;SDS011;18644;48.700;9.210;2023-04-25T14:45:16;4.68;;;3.13;;
32138;SDS011;18644;48.700;9.210;2023-04-25T14:47:43;4.35;;;2.95;;
32138;SDS011;18644;48.700;9.210;2023-04-25T14:50:12;4.25;;;3.03;;
32138;SDS011;18644;48.700;9.210;2023-04-25T14:52:38;3.20;;;2.90;;
32138;SDS011;18644;48.700;9.210;2023-04-25T14:55:06;3.45;;;2.65;;
32138;SDS011;18644;48.700;9.210;2023-04-25T14:57:34;2.60;;;2.35;;
32138;SDS011;18644;48.700;9.210;2023-04-25T15:00:01;3.28;;;2.65;;